Minot Air Force Base, ND (58704)

11:29 AM CDT on September 01, 2015 (GMT -0500)
APRSWXNET | | Change Station
CLOSE
Current Station
Personal Weather Station
Location: Glenburn, ND
Elevation: 1574 ft
Nearby Weather Stations

Elev 1574 ft 48.45 °N, 101.22 °W | Updated 22 minutes ago

Clear
Clear
79 °F
Feels Like 80 °F
N
5
Wind Variable Wind from SW
Gusts 10.0 mph

Today
High -- | Low -- °F
--% Chance of Precip.
Yesterday
High -- | Low -- °F
Precip. -- in
7:02 AM 8:27 PM
Waning Gibbous, 88% visible
Pressure 29.81 in
Visibility 10.0 miles
Clouds Clear
Heat Index 80 °F
Dew Point 59 °F
Humidity 51%
Rainfall in
Snow Depth Not available.
UV 4 out of 12
Pollen 10.40 out of 12
Air Quality Not available.
Flu Activity Not available.
METAR KMIB 011558Z AUTO 24010KT 10SM CLR 27/13 A2981 RMK AO2 SLP094 T02650133 $
Pressure 29.81 in
Visibility 10.0 miles
Clouds Clear
Heat Index 80 °F
Dew Point 59 °F
Humidity 51%
Rainfall in
Snow Depth Not available.
UV 4 out of 12
Pollen 10.40 out of 12
Air Quality Not available.
Flu Activity Not available.
METAR KMIB 011558Z AUTO 24010KT 10SM CLR 27/13 A2981 RMK AO2 SLP094 T02650133 $

10-Day Weather Forecast

×

Almanac

Astronomy

Sep. 01, 2015 Rise Set
Actual Time
Civil Twilight
Nautical Twilight
Astronomical Twilight
Moon
Length of Visible Light
Length of Day
Tomorrow will be .
, % of the Moon is Illuminated

Today's Extremes

State Highs State Lows

Community

WunderPhotos

Upload Photos

1,851,544 photos uploaded!

WunderBlogs® & News

Nearby

Air Quality

  Air Quality AQ Index Pollutant
Not available.

Snow Depth

Station Depth Elevation

Earthquake Activity

City Distance Mag. Time & Date
Minimum magnitude displayed is 2.5.

Coastal Water Temperatures

Place Temperature

Stations

Nearby Weather Stations

Station Location Temp. Windchill Dew Point Humidity Wind Precip. Elev Updated Type